Aviation Digital Data Service (ADDS)

Output produced by METARs form (0638 UTC 27 March 2017)
found at http://www.aviationweather.gov/adds/metars/
 
TAF TNCA 270400Z 2706/2806 08011KT 9999 FEW020 
     TEMPO 2706/2712 BKN014